sensor_id;sensor_type;location;lat;lon;timestamp;temperature;humidity
9497;DHT22;4786;51.270;4.456;2023-04-29T00:01:42;11.50;99.90
9497;DHT22;4786;51.270;4.456;2023-04-29T00:04:07;11.40;99.90
9497;DHT22;4786;51.270;4.456;2023-04-29T00:06:34;11.30;99.90
9497;DHT22;4786;51.270;4.456;2023-04-29T00:09:00;11.40;99.90
9497;DHT22;4786;51.270;4.456;2023-04-29T00:11:26;11.40;99.90
9497;DHT22;4786;51.270;4.456;2023-04-29T00:13:52;11.40;99.90
9497;DHT22;4786;51.270;4.456;2023-04-29T00:16:18;11.40;99.90
9497;DHT22;4786;51.270;4.456;2023-04-29T00:18:44;11.40;99.90
9497;DHT22;4786;51.270;4.456;2023-04-29T00:21:10;11.40;99.90
9497;DHT22;4786;51.270;4.456;2023-04-29T00:23:36;11.40;99.90
9497;DHT22;4786;51.270;4.456;2023-04-29T00:26:02;11.40;99.90
9497;DHT22;4786;51.270;4.456;2023-04-29T00:28:28;11.30;99.90
9497;DHT22;4786;51.270;4.456;2023-04-29T00:30:54;11.20;99.90
9497;DHT22;4786;51.270;4.456;2023-04-29T00:33:20;11.40;99.90
9497;DHT22;4786;51.270;4.456;2023-04-29T00:35:46;11.30;99.90
9497;DHT22;4786;51.270;4.456;2023-04-29T00:38:13;11.20;99.90
9497;DHT22;4786;51.270;4.456;2023-04-29T00:40:39;11.30;99.90
9497;DHT22;4786;51.270;4.456;2023-04-29T00:43:05;11.30;99.90
9497;DHT22;4786;51.270;4.456;2023-04-29T00:45:32;11.20;99.90
9497;DHT22;4786;51.270;4.456;2023-04-29T00:47:58;11.20;99.90
9497;DHT22;4786;51.270;4.456;2023-04-29T00:50:24;11.30;99.90
9497;DHT22;4786;51.270;4.456;2023-04-29T00:52:50;11.30;99.90
9497;DHT22;4786;51.270;4.456;2023-04-29T00:55:17;11.30;99.90
9497;DHT22;4786;51.270;4.456;2023-04-29T00:57:43;11.20;99.90
9497;DHT22;4786;51.270;4.456;2023-04-29T01:00:12;11.20;99.90
9497;DHT22;4786;51.270;4.456;2023-04-29T01:02:39;11.10;99.90
9497;DHT22;4786;51.270;4.456;2023-04-29T01:05:06;11.10;99.90
9497;DHT22;4786;51.270;4.456;2023-04-29T01:08:21;11.00;99.90
9497;DHT22;4786;51.270;4.456;2023-04-29T01:11:00;11.10;99.90
9497;DHT22;4786;51.270;4.456;2023-04-29T01:13:32;11.00;99.90
9497;DHT22;4786;51.270;4.456;2023-04-29T01:16:10;11.00;99.90
9497;DHT22;4786;51.270;4.456;2023-04-29T01:18:54;10.90;99.90
9497;DHT22;4786;51.270;4.456;2023-04-29T01:21:24;10.90;99.90
9497;DHT22;4786;51.270;4.456;2023-04-29T01:23:50;10.90;99.90
9497;DHT22;4786;51.270;4.456;2023-04-29T01:26:23;11.00;99.90
9497;DHT22;4786;51.270;4.456;2023-04-29T01:31:53;11.00;99.90
9497;DHT22;4786;51.270;4.456;2023-04-29T01:40:18;11.00;99.90
9497;DHT22;4786;51.270;4.456;2023-04-29T01:42:59;11.10;99.90
9497;DHT22;4786;51.270;4.456;2023-04-29T01:45:26;11.10;99.90
9497;DHT22;4786;51.270;4.456;2023-04-29T01:47:53;11.10;99.90
9497;DHT22;4786;51.270;4.456;2023-04-29T01:50:21;11.10;99.90
9497;DHT22;4786;51.270;4.456;2023-04-29T01:52:47;11.10;99.90
9497;DHT22;4786;51.270;4.456;2023-04-29T01:55:13;11.20;99.90
9497;DHT22;4786;51.270;4.456;2023-04-29T01:57:39;11.10;99.90
9497;DHT22;4786;51.270;4.456;2023-04-29T02:00:05;11.10;99.90
9497;DHT22;4786;51.270;4.456;2023-04-29T02:02:33;11.10;99.90
9497;DHT22;4786;51.270;4.456;2023-04-29T02:04:59;11.20;99.90
9497;DHT22;4786;51.270;4.456;2023-04-29T02:07:25;11.10;99.90
9497;DHT22;4786;51.270;4.456;2023-04-29T02:09:51;11.00;99.90
9497;DHT22;4786;51.270;4.456;2023-04-29T02:12:17;11.00;99.90
9497;DHT22;4786;51.270;4.456;2023-04-29T02:14:43;11.00;99.90
9497;DHT22;4786;51.270;4.456;2023-04-29T02:17:09;11.00;99.90
9497;DHT22;4786;51.270;4.456;2023-04-29T02:19:35;11.00;99.90
9497;DHT22;4786;51.270;4.456;2023-04-29T02:22:01;11.00;99.90
9497;DHT22;4786;51.270;4.456;2023-04-29T02:24:27;11.10;99.90
9497;DHT22;4786;51.270;4.456;2023-04-29T02:26:53;11.10;99.90
9497;DHT22;4786;51.270;4.456;2023-04-29T02:29:19;11.00;99.90
9497;DHT22;4786;51.270;4.456;2023-04-29T02:31:45;11.00;99.90
9497;DHT22;4786;51.270;4.456;2023-04-29T02:34:11;11.10;99.90
9497;DHT22;4786;51.270;4.456;2023-04-29T02:36:37;11.10;99.90
9497;DHT22;4786;51.270;4.456;2023-04-29T02:39:04;11.10;99.90
9497;DHT22;4786;51.270;4.456;2023-04-29T02:41:30;11.00;99.90
9497;DHT22;4786;51.270;4.456;2023-04-29T02:43:56;11.00;99.90
9497;DHT22;4786;51.270;4.456;2023-04-29T02:46:22;11.00;99.90
9497;DHT22;4786;51.270;4.456;2023-04-29T02:48:48;11.00;99.90
9497;DHT22;4786;51.270;4.456;2023-04-29T02:51:14;11.00;99.90
9497;DHT22;4786;51.270;4.456;2023-04-29T02:53:40;10.90;99.90
9497;DHT22;4786;51.270;4.456;2023-04-29T02:56:06;10.90;99.90
9497;DHT22;4786;51.270;4.456;2023-04-29T02:58:32;10.90;99.90
9497;DHT22;4786;51.270;4.456;2023-04-29T03:00:58;11.00;99.90
9497;DHT22;4786;51.270;4.456;2023-04-29T03:03:24;11.00;99.90
9497;DHT22;4786;51.270;4.456;2023-04-29T03:05:50;11.00;99.90
9497;DHT22;4786;51.270;4.456;2023-04-29T03:08:16;11.00;99.90
9497;DHT22;4786;51.270;4.456;2023-04-29T03:10:42;10.90;99.90
9497;DHT22;4786;51.270;4.456;2023-04-29T03:13:08;10.90;99.90
9497;DHT22;4786;51.270;4.456;2023-04-29T03:15:34;10.90;99.90
9497;DHT22;4786;51.270;4.456;2023-04-29T03:18:01;10.80;99.90
9497;DHT22;4786;51.270;4.456;2023-04-29T03:20:29;10.90;99.90
9497;DHT22;4786;51.270;4.456;2023-04-29T03:22:57;10.90;99.90
9497;DHT22;4786;51.270;4.456;2023-04-29T03:25:24;10.80;99.90
9497;DHT22;4786;51.270;4.456;2023-04-29T03:27:50;10.80;99.90
9497;DHT22;4786;51.270;4.456;2023-04-29T03:30:16;10.80;99.90
9497;DHT22;4786;51.270;4.456;2023-04-29T03:32:42;10.80;99.90
9497;DHT22;4786;51.270;4.456;2023-04-29T03:35:08;10.80;99.90
9497;DHT22;4786;51.270;4.456;2023-04-29T03:37:33;10.90;99.90
9497;DHT22;4786;51.270;4.456;2023-04-29T03:39:59;10.80;99.90
9497;DHT22;4786;51.270;4.456;2023-04-29T03:42:25;10.80;99.90
9497;DHT22;4786;51.270;4.456;2023-04-29T03:44:51;10.80;99.90
9497;DHT22;4786;51.270;4.456;2023-04-29T03:47:17;10.70;99.90
9497;DHT22;4786;51.270;4.456;2023-04-29T03:49:43;10.60;99.90
9497;DHT22;4786;51.270;4.456;2023-04-29T03:52:09;10.60;99.90
9497;DHT22;4786;51.270;4.456;2023-04-29T03:54:36;10.70;99.90
9497;DHT22;4786;51.270;4.456;2023-04-29T03:57:03;10.70;99.90
9497;DHT22;4786;51.270;4.456;2023-04-29T03:59:29;10.70;99.90
9497;DHT22;4786;51.270;4.456;2023-04-29T04:01:55;10.60;99.90
9497;DHT22;4786;51.270;4.456;2023-04-29T04:04:21;10.60;99.90
9497;DHT22;4786;51.270;4.456;2023-04-29T04:06:47;10.60;99.90
9497;DHT22;4786;51.270;4.456;2023-04-29T04:09:19;10.50;99.90
9497;DHT22;4786;51.270;4.456;2023-04-29T04:11:45;10.60;99.90
9497;DHT22;4786;51.270;4.456;2023-04-29T04:14:11;10.60;99.90
9497;DHT22;4786;51.270;4.456;2023-04-29T04:16:37;10.50;99.90
9497;DHT22;4786;51.270;4.456;2023-04-29T04:19:03;10.60;99.90
9497;DHT22;4786;51.270;4.456;2023-04-29T04:21:29;10.50;99.90
9497;DHT22;4786;51.270;4.456;2023-04-29T04:23:56;10.60;99.90
9497;DHT22;4786;51.270;4.456;2023-04-29T04:26:22;10.60;99.90
9497;DHT22;4786;51.270;4.456;2023-04-29T04:28:48;10.60;99.90
9497;DHT22;4786;51.270;4.456;2023-04-29T04:31:14;10.60;99.90
9497;DHT22;4786;51.270;4.456;2023-04-29T04:33:40;10.60;99.90
9497;DHT22;4786;51.270;4.456;2023-04-29T04:36:06;10.60;99.90
9497;DHT22;4786;51.270;4.456;2023-04-29T04:38:32;10.50;99.90
9497;DHT22;4786;51.270;4.456;2023-04-29T04:40:59;10.60;99.90
9497;DHT22;4786;51.270;4.456;2023-04-29T04:43:24;10.50;99.90
9497;DHT22;4786;51.270;4.456;2023-04-29T04:45:50;10.50;99.90
9497;DHT22;4786;51.270;4.456;2023-04-29T04:48:16;10.50;99.90
9497;DHT22;4786;51.270;4.456;2023-04-29T04:50:42;10.70;99.90
9497;DHT22;4786;51.270;4.456;2023-04-29T04:53:08;10.50;99.90
9497;DHT22;4786;51.270;4.456;2023-04-29T04:55:33;10.50;99.90
9497;DHT22;4786;51.270;4.456;2023-04-29T04:57:59;10.60;99.90
9497;DHT22;4786;51.270;4.456;2023-04-29T05:00:25;10.70;99.90
9497;DHT22;4786;51.270;4.456;2023-04-29T05:02:51;10.70;99.90
9497;DHT22;4786;51.270;4.456;2023-04-29T05:05:17;10.70;99.90
9497;DHT22;4786;51.270;4.456;2023-04-29T05:07:43;10.70;99.90
9497;DHT22;4786;51.270;4.456;2023-04-29T05:10:09;10.70;99.90
9497;DHT22;4786;51.270;4.456;2023-04-29T05:12:35;10.70;99.90
9497;DHT22;4786;51.270;4.456;2023-04-29T05:15:02;10.70;99.90
9497;DHT22;4786;51.270;4.456;2023-04-29T05:17:28;10.70;99.90
9497;DHT22;4786;51.270;4.456;2023-04-29T05:19:55;10.70;99.90
9497;DHT22;4786;51.270;4.456;2023-04-29T05:22:21;10.80;99.90
9497;DHT22;4786;51.270;4.456;2023-04-29T05:24:47;10.80;99.90
9497;DHT22;4786;51.270;4.456;2023-04-29T05:27:13;10.70;99.90
9497;DHT22;4786;51.270;4.456;2023-04-29T05:29:39;10.80;99.90
9497;DHT22;4786;51.270;4.456;2023-04-29T05:32:05;10.80;99.90
9497;DHT22;4786;51.270;4.456;2023-04-29T05:34:31;10.80;99.90
9497;DHT22;4786;51.270;4.456;2023-04-29T05:36:57;10.80;99.90
9497;DHT22;4786;51.270;4.456;2023-04-29T05:39:23;10.80;99.90
9497;DHT22;4786;51.270;4.456;2023-04-29T05:41:48;10.90;99.90
9497;DHT22;4786;51.270;4.456;2023-04-29T05:44:14;10.80;99.90
9497;DHT22;4786;51.270;4.456;2023-04-29T05:46:40;10.90;99.90
9497;DHT22;4786;51.270;4.456;2023-04-29T05:49:05;10.80;99.90
9497;DHT22;4786;51.270;4.456;2023-04-29T05:51:31;10.80;99.90
9497;DHT22;4786;51.270;4.456;2023-04-29T05:53:57;10.90;99.90
9497;DHT22;4786;51.270;4.456;2023-04-29T05:56:24;10.80;99.90
9497;DHT22;4786;51.270;4.456;2023-04-29T05:58:50;10.90;99.90
9497;DHT22;4786;51.270;4.456;2023-04-29T06:01:17;10.90;99.90
9497;DHT22;4786;51.270;4.456;2023-04-29T06:03:43;11.00;99.90
9497;DHT22;4786;51.270;4.456;2023-04-29T06:06:09;11.10;99.90
9497;DHT22;4786;51.270;4.456;2023-04-29T06:08:36;11.10;99.90
9497;DHT22;4786;51.270;4.456;2023-04-29T06:11:02;11.00;99.90
9497;DHT22;4786;51.270;4.456;2023-04-29T06:13:30;11.00;99.90
9497;DHT22;4786;51.270;4.456;2023-04-29T06:15:56;11.00;99.90
9497;DHT22;4786;51.270;4.456;2023-04-29T06:18:22;11.10;99.90
9497;DHT22;4786;51.270;4.456;2023-04-29T06:20:48;11.10;99.90
9497;DHT22;4786;51.270;4.456;2023-04-29T06:23:14;11.10;99.90
9497;DHT22;4786;51.270;4.456;2023-04-29T06:25:40;11.20;99.90
9497;DHT22;4786;51.270;4.456;2023-04-29T06:28:06;11.20;99.90
9497;DHT22;4786;51.270;4.456;2023-04-29T06:30:33;11.30;99.90
9497;DHT22;4786;51.270;4.456;2023-04-29T06:32:59;11.30;99.90
9497;DHT22;4786;51.270;4.456;2023-04-29T06:35:25;11.30;99.90
9497;DHT22;4786;51.270;4.456;2023-04-29T06:37:52;11.20;99.90
9497;DHT22;4786;51.270;4.456;2023-04-29T06:40:18;11.30;99.90
9497;DHT22;4786;51.270;4.456;2023-04-29T06:42:44;11.30;99.90
9497;DHT22;4786;51.270;4.456;2023-04-29T06:45:10;11.30;99.90
9497;DHT22;4786;51.270;4.456;2023-04-29T06:47:35;11.30;99.90
9497;DHT22;4786;51.270;4.456;2023-04-29T06:50:01;11.40;99.90
9497;DHT22;4786;51.270;4.456;2023-04-29T06:52:28;11.40;99.90
9497;DHT22;4786;51.270;4.456;2023-04-29T06:54:54;11.40;99.90
9497;DHT22;4786;51.270;4.456;2023-04-29T06:57:20;11.40;99.90
9497;DHT22;4786;51.270;4.456;2023-04-29T06:59:46;11.50;99.90
9497;DHT22;4786;51.270;4.456;2023-04-29T07:02:12;11.50;99.90
9497;DHT22;4786;51.270;4.456;2023-04-29T07:04:40;11.60;99.90
9497;DHT22;4786;51.270;4.456;2023-04-29T07:07:05;11.60;99.90
9497;DHT22;4786;51.270;4.456;2023-04-29T07:09:32;11.60;99.90
9497;DHT22;4786;51.270;4.456;2023-04-29T07:11:58;11.70;99.90
9497;DHT22;4786;51.270;4.456;2023-04-29T07:14:24;11.80;99.90
9497;DHT22;4786;51.270;4.456;2023-04-29T07:16:53;11.80;99.90
9497;DHT22;4786;51.270;4.456;2023-04-29T07:19:19;11.90;99.90
9497;DHT22;4786;51.270;4.456;2023-04-29T07:21:45;12.00;99.90
9497;DHT22;4786;51.270;4.456;2023-04-29T07:24:12;12.00;99.90
9497;DHT22;4786;51.270;4.456;2023-04-29T07:26:41;12.00;99.90
9497;DHT22;4786;51.270;4.456;2023-04-29T07:29:07;12.10;99.90
9497;DHT22;4786;51.270;4.456;2023-04-29T07:31:33;12.00;99.90
9497;DHT22;4786;51.270;4.456;2023-04-29T07:33:58;12.10;99.90
9497;DHT22;4786;51.270;4.456;2023-04-29T07:36:24;12.10;99.90
9497;DHT22;4786;51.270;4.456;2023-04-29T07:38:50;12.20;99.90
9497;DHT22;4786;51.270;4.456;2023-04-29T07:41:16;12.20;99.90
9497;DHT22;4786;51.270;4.456;2023-04-29T07:43:42;12.20;99.90
9497;DHT22;4786;51.270;4.456;2023-04-29T07:46:08;12.20;99.90
9497;DHT22;4786;51.270;4.456;2023-04-29T07:48:37;12.10;99.90
9497;DHT22;4786;51.270;4.456;2023-04-29T07:51:05;12.20;99.90
9497;DHT22;4786;51.270;4.456;2023-04-29T07:53:31;12.20;99.90
9497;DHT22;4786;51.270;4.456;2023-04-29T07:55:57;12.20;99.90
9497;DHT22;4786;51.270;4.456;2023-04-29T07:58:23;12.10;99.90
9497;DHT22;4786;51.270;4.456;2023-04-29T08:00:50;12.20;99.90
9497;DHT22;4786;51.270;4.456;2023-04-29T08:03:16;12.30;99.90
9497;DHT22;4786;51.270;4.456;2023-04-29T08:05:42;12.40;99.90
9497;DHT22;4786;51.270;4.456;2023-04-29T08:08:09;12.40;99.90
9497;DHT22;4786;51.270;4.456;2023-04-29T08:10:37;12.40;99.90
9497;DHT22;4786;51.270;4.456;2023-04-29T08:13:05;12.40;99.90
9497;DHT22;4786;51.270;4.456;2023-04-29T08:15:31;12.40;99.90
9497;DHT22;4786;51.270;4.456;2023-04-29T08:17:57;12.40;99.90
9497;DHT22;4786;51.270;4.456;2023-04-29T08:20:23;12.40;99.90
9497;DHT22;4786;51.270;4.456;2023-04-29T08:22:49;12.40;99.90
9497;DHT22;4786;51.270;4.456;2023-04-29T08:25:15;12.50;99.90
9497;DHT22;4786;51.270;4.456;2023-04-29T08:27:41;12.40;99.90
9497;DHT22;4786;51.270;4.456;2023-04-29T08:30:09;12.30;99.90
9497;DHT22;4786;51.270;4.456;2023-04-29T08:32:35;12.40;99.90
9497;DHT22;4786;51.270;4.456;2023-04-29T08:35:02;12.40;99.90
9497;DHT22;4786;51.270;4.456;2023-04-29T08:37:28;12.50;99.90
9497;DHT22;4786;51.270;4.456;2023-04-29T08:39:54;12.50;99.90
9497;DHT22;4786;51.270;4.456;2023-04-29T08:42:34;12.60;99.90
9497;DHT22;4786;51.270;4.456;2023-04-29T08:45:01;12.70;99.90
9497;DHT22;4786;51.270;4.456;2023-04-29T08:47:31;12.80;99.90
9497;DHT22;4786;51.270;4.456;2023-04-29T08:50:02;13.00;99.90
9497;DHT22;4786;51.270;4.456;2023-04-29T08:52:30;13.30;99.90
9497;DHT22;4786;51.270;4.456;2023-04-29T08:54:57;13.50;99.90
9497;DHT22;4786;51.270;4.456;2023-04-29T08:57:25;13.50;99.90
9497;DHT22;4786;51.270;4.456;2023-04-29T08:59:52;13.60;99.90
9497;DHT22;4786;51.270;4.456;2023-04-29T09:02:19;13.90;99.90
9497;DHT22;4786;51.270;4.456;2023-04-29T09:04:54;14.10;99.90
9497;DHT22;4786;51.270;4.456;2023-04-29T09:07:22;14.10;99.90
9497;DHT22;4786;51.270;4.456;2023-04-29T09:09:50;14.20;99.90
9497;DHT22;4786;51.270;4.456;2023-04-29T09:12:17;14.10;99.90
9497;DHT22;4786;51.270;4.456;2023-04-29T09:14:43;14.10;99.90
9497;DHT22;4786;51.270;4.456;2023-04-29T09:17:09;14.10;99.90
9497;DHT22;4786;51.270;4.456;2023-04-29T09:19:36;14.00;99.90
9497;DHT22;4786;51.270;4.456;2023-04-29T09:22:03;14.10;99.90
9497;DHT22;4786;51.270;4.456;2023-04-29T09:24:30;14.20;99.90
9497;DHT22;4786;51.270;4.456;2023-04-29T09:26:57;14.10;99.90
9497;DHT22;4786;51.270;4.456;2023-04-29T09:29:24;14.00;99.90
9497;DHT22;4786;51.270;4.456;2023-04-29T09:31:50;14.10;99.90
9497;DHT22;4786;51.270;4.456;2023-04-29T09:34:30;14.10;99.90
9497;DHT22;4786;51.270;4.456;2023-04-29T09:36:56;14.00;99.90
9497;DHT22;4786;51.270;4.456;2023-04-29T09:39:23;14.10;99.90
9497;DHT22;4786;51.270;4.456;2023-04-29T09:44:20;14.40;99.90
9497;DHT22;4786;51.270;4.456;2023-04-29T09:49:29;14.70;99.90
9497;DHT22;4786;51.270;4.456;2023-04-29T09:52:04;14.60;99.90
9497;DHT22;4786;51.270;4.456;2023-04-29T09:54:32;14.50;99.90
9497;DHT22;4786;51.270;4.456;2023-04-29T09:57:00;14.50;99.90
9497;DHT22;4786;51.270;4.456;2023-04-29T09:59:31;14.50;99.90
9497;DHT22;4786;51.270;4.456;2023-04-29T10:01:57;14.60;99.90
9497;DHT22;4786;51.270;4.456;2023-04-29T10:04:25;14.80;99.90
9497;DHT22;4786;51.270;4.456;2023-04-29T10:06:53;15.00;99.90
9497;DHT22;4786;51.270;4.456;2023-04-29T10:09:20;15.00;99.90
9497;DHT22;4786;51.270;4.456;2023-04-29T10:11:50;15.20;99.90
9497;DHT22;4786;51.270;4.456;2023-04-29T10:14:19;15.40;99.90
9497;DHT22;4786;51.270;4.456;2023-04-29T10:19:20;15.70;99.90
9497;DHT22;4786;51.270;4.456;2023-04-29T10:21:50;16.00;99.90
9497;DHT22;4786;51.270;4.456;2023-04-29T10:24:18;16.20;99.90
9497;DHT22;4786;51.270;4.456;2023-04-29T10:26:50;16.40;99.90
9497;DHT22;4786;51.270;4.456;2023-04-29T10:29:16;16.30;99.90
9497;DHT22;4786;51.270;4.456;2023-04-29T10:31:45;16.30;99.90
9497;DHT22;4786;51.270;4.456;2023-04-29T10:34:16;16.30;99.90
9497;DHT22;4786;51.270;4.456;2023-04-29T10:36:42;16.20;99.90
9497;DHT22;4786;51.270;4.456;2023-04-29T10:39:14;16.20;99.90
9497;DHT22;4786;51.270;4.456;2023-04-29T10:41:43;15.90;99.90
9497;DHT22;4786;51.270;4.456;2023-04-29T10:44:12;15.90;99.90
9497;DHT22;4786;51.270;4.456;2023-04-29T10:46:39;15.80;99.90
9497;DHT22;4786;51.270;4.456;2023-04-29T10:49:06;15.70;99.90
9497;DHT22;4786;51.270;4.456;2023-04-29T10:51:42;15.70;99.90
9497;DHT22;4786;51.270;4.456;2023-04-29T10:54:13;15.70;99.90
9497;DHT22;4786;51.270;4.456;2023-04-29T10:59:15;15.90;99.90
9497;DHT22;4786;51.270;4.456;2023-04-29T11:01:49;15.80;99.90
9497;DHT22;4786;51.270;4.456;2023-04-29T11:04:17;15.90;99.90
9497;DHT22;4786;51.270;4.456;2023-04-29T11:06:50;16.00;99.90
9497;DHT22;4786;51.270;4.456;2023-04-29T11:14:24;16.10;99.90
9497;DHT22;4786;51.270;4.456;2023-04-29T11:16:55;16.20;99.90
9497;DHT22;4786;51.270;4.456;2023-04-29T11:19:24;16.20;99.90
9497;DHT22;4786;51.270;4.456;2023-04-29T11:27:19;16.80;99.90
9497;DHT22;4786;51.270;4.456;2023-04-29T11:29:45;17.00;99.90
9497;DHT22;4786;51.270;4.456;2023-04-29T11:32:14;16.90;99.90
9497;DHT22;4786;51.270;4.456;2023-04-29T11:34:41;16.90;99.90
9497;DHT22;4786;51.270;4.456;2023-04-29T11:37:07;16.80;99.90
9497;DHT22;4786;51.270;4.456;2023-04-29T11:39:34;16.90;99.90
9497;DHT22;4786;51.270;4.456;2023-04-29T11:42:04;16.70;99.90
9497;DHT22;4786;51.270;4.456;2023-04-29T11:44:33;16.50;99.90
9497;DHT22;4786;51.270;4.456;2023-04-29T11:47:03;16.50;99.90
9497;DHT22;4786;51.270;4.456;2023-04-29T11:49:33;16.30;99.90
9497;DHT22;4786;51.270;4.456;2023-04-29T11:52:00;16.40;99.90
9497;DHT22;4786;51.270;4.456;2023-04-29T11:54:27;16.30;99.90
9497;DHT22;4786;51.270;4.456;2023-04-29T11:56:54;16.10;99.90
9497;DHT22;4786;51.270;4.456;2023-04-29T11:59:21;16.10;99.90
9497;DHT22;4786;51.270;4.456;2023-04-29T12:01:50;16.30;99.90
9497;DHT22;4786;51.270;4.456;2023-04-29T12:04:16;16.50;99.90
9497;DHT22;4786;51.270;4.456;2023-04-29T12:06:44;16.60;99.90
9497;DHT22;4786;51.270;4.456;2023-04-29T12:09:10;16.70;99.90
9497;DHT22;4786;51.270;4.456;2023-04-29T12:11:37;16.80;99.90
9497;DHT22;4786;51.270;4.456;2023-04-29T12:14:03;16.80;99.90
9497;DHT22;4786;51.270;4.456;2023-04-29T12:16:31;17.00;99.90
9497;DHT22;4786;51.270;4.456;2023-04-29T12:18:58;16.80;99.90
9497;DHT22;4786;51.270;4.456;2023-04-29T12:21:24;16.80;99.90
9497;DHT22;4786;51.270;4.456;2023-04-29T12:23:52;16.80;99.90
9497;DHT22;4786;51.270;4.456;2023-04-29T12:26:18;16.70;99.90
9497;DHT22;4786;51.270;4.456;2023-04-29T12:28:45;16.70;99.90
9497;DHT22;4786;51.270;4.456;2023-04-29T12:31:13;16.60;99.90
9497;DHT22;4786;51.270;4.456;2023-04-29T12:33:42;16.60;99.90
9497;DHT22;4786;51.270;4.456;2023-04-29T12:36:27;16.60;99.90
9497;DHT22;4786;51.270;4.456;2023-04-29T12:38:54;16.60;99.90
9497;DHT22;4786;51.270;4.456;2023-04-29T12:41:38;16.50;99.90
9497;DHT22;4786;51.270;4.456;2023-04-29T12:44:05;16.60;99.90
9497;DHT22;4786;51.270;4.456;2023-04-29T12:46:39;16.60;99.90
9497;DHT22;4786;51.270;4.456;2023-04-29T12:49:05;16.70;99.90
9497;DHT22;4786;51.270;4.456;2023-04-29T12:51:33;16.70;99.90
9497;DHT22;4786;51.270;4.456;2023-04-29T12:54:03;16.70;99.90
9497;DHT22;4786;51.270;4.456;2023-04-29T12:56:32;16.80;99.90
9497;DHT22;4786;51.270;4.456;2023-04-29T12:59:08;17.00;99.90
9497;DHT22;4786;51.270;4.456;2023-04-29T13:01:37;17.10;99.90
9497;DHT22;4786;51.270;4.456;2023-04-29T13:04:04;17.20;99.90
9497;DHT22;4786;51.270;4.456;2023-04-29T13:06:31;17.20;99.90
9497;DHT22;4786;51.270;4.456;2023-04-29T13:08:57;17.10;99.90
9497;DHT22;4786;51.270;4.456;2023-04-29T13:11:23;17.10;99.90
9497;DHT22;4786;51.270;4.456;2023-04-29T13:13:49;17.00;99.90
9497;DHT22;4786;51.270;4.456;2023-04-29T13:16:16;17.10;99.90
9497;DHT22;4786;51.270;4.456;2023-04-29T13:18:41;17.00;99.90
9497;DHT22;4786;51.270;4.456;2023-04-29T13:21:07;17.00;99.90
9497;DHT22;4786;51.270;4.456;2023-04-29T13:23:33;17.00;99.90
9497;DHT22;4786;51.270;4.456;2023-04-29T13:25:59;17.00;99.90
9497;DHT22;4786;51.270;4.456;2023-04-29T13:28:26;17.10;99.90
9497;DHT22;4786;51.270;4.456;2023-04-29T13:30:51;17.10;99.90
9497;DHT22;4786;51.270;4.456;2023-04-29T13:33:18;17.20;99.90
9497;DHT22;4786;51.270;4.456;2023-04-29T13:35:44;17.20;99.90
9497;DHT22;4786;51.270;4.456;2023-04-29T13:38:11;17.20;99.90
9497;DHT22;4786;51.270;4.456;2023-04-29T13:40:36;17.20;99.90
9497;DHT22;4786;51.270;4.456;2023-04-29T13:43:02;17.20;99.90
9497;DHT22;4786;51.270;4.456;2023-04-29T13:45:28;17.10;99.90
9497;DHT22;4786;51.270;4.456;2023-04-29T13:47:54;17.10;99.90
9497;DHT22;4786;51.270;4.456;2023-04-29T13:50:20;17.10;99.90
9497;DHT22;4786;51.270;4.456;2023-04-29T13:52:46;17.20;99.90
9497;DHT22;4786;51.270;4.456;2023-04-29T13:55:11;17.20;99.90
9497;DHT22;4786;51.270;4.456;2023-04-29T13:57:37;17.20;99.90
9497;DHT22;4786;51.270;4.456;2023-04-29T14:00:03;17.30;99.90
9497;DHT22;4786;51.270;4.456;2023-04-29T14:02:30;17.20;99.90
9497;DHT22;4786;51.270;4.456;2023-04-29T14:04:56;17.20;99.90
9497;DHT22;4786;51.270;4.456;2023-04-29T14:07:21;17.30;99.90
9497;DHT22;4786;51.270;4.456;2023-04-29T14:09:47;17.30;99.90
9497;DHT22;4786;51.270;4.456;2023-04-29T14:12:13;17.40;99.90
9497;DHT22;4786;51.270;4.456;2023-04-29T14:14:39;17.40;99.90
9497;DHT22;4786;51.270;4.456;2023-04-29T14:17:05;17.50;99.90
9497;DHT22;4786;51.270;4.456;2023-04-29T14:19:32;17.60;99.90
9497;DHT22;4786;51.270;4.456;2023-04-29T14:21:58;17.40;99.90
9497;DHT22;4786;51.270;4.456;2023-04-29T14:24:24;17.30;99.90
9497;DHT22;4786;51.270;4.456;2023-04-29T14:26:50;17.30;99.90
9497;DHT22;4786;51.270;4.456;2023-04-29T14:29:17;17.30;99.90
9497;DHT22;4786;51.270;4.456;2023-04-29T14:31:43;17.30;99.90
9497;DHT22;4786;51.270;4.456;2023-04-29T14:34:09;17.20;99.90
9497;DHT22;4786;51.270;4.456;2023-04-29T14:36:35;17.20;99.90
9497;DHT22;4786;51.270;4.456;2023-04-29T14:39:01;17.20;99.90
9497;DHT22;4786;51.270;4.456;2023-04-29T14:41:28;17.30;99.90
9497;DHT22;4786;51.270;4.456;2023-04-29T14:43:54;17.40;99.90
9497;DHT22;4786;51.270;4.456;2023-04-29T14:46:20;17.40;99.90
9497;DHT22;4786;51.270;4.456;2023-04-29T14:48:46;17.40;99.90
9497;DHT22;4786;51.270;4.456;2023-04-29T14:51:13;17.60;99.90
9497;DHT22;4786;51.270;4.456;2023-04-29T14:53:39;17.50;99.90
9497;DHT22;4786;51.270;4.456;2023-04-29T14:56:04;17.50;99.90
9497;DHT22;4786;51.270;4.456;2023-04-29T14:58:31;17.50;99.90
9497;DHT22;4786;51.270;4.456;2023-04-29T15:00:57;17.30;99.90
9497;DHT22;4786;51.270;4.456;2023-04-29T15:03:22;17.30;99.90
9497;DHT22;4786;51.270;4.456;2023-04-29T15:05:49;17.30;99.90
9497;DHT22;4786;51.270;4.456;2023-04-29T15:08:16;17.30;99.90
9497;DHT22;4786;51.270;4.456;2023-04-29T15:10:42;17.30;99.90
9497;DHT22;4786;51.270;4.456;2023-04-29T15:13:11;17.40;99.90
9497;DHT22;4786;51.270;4.456;2023-04-29T15:15:37;17.40;99.90
9497;DHT22;4786;51.270;4.456;2023-04-29T15:18:03;17.30;99.90
9497;DHT22;4786;51.270;4.456;2023-04-29T15:20:30;17.30;99.90
9497;DHT22;4786;51.270;4.456;2023-04-29T15:22:57;17.30;99.90
9497;DHT22;4786;51.270;4.456;2023-04-29T15:25:22;17.20;99.90
9497;DHT22;4786;51.270;4.456;2023-04-29T15:27:48;17.10;99.90
9497;DHT22;4786;51.270;4.456;2023-04-29T15:30:15;17.20;99.90
9497;DHT22;4786;51.270;4.456;2023-04-29T15:32:41;17.20;99.90
9497;DHT22;4786;51.270;4.456;2023-04-29T15:35:08;17.20;99.90
9497;DHT22;4786;51.270;4.456;2023-04-29T15:37:34;17.30;99.90
9497;DHT22;4786;51.270;4.456;2023-04-29T15:40:01;17.40;99.90
9497;DHT22;4786;51.270;4.456;2023-04-29T15:42:27;17.30;99.90
9497;DHT22;4786;51.270;4.456;2023-04-29T15:44:53;17.30;99.90
9497;DHT22;4786;51.270;4.456;2023-04-29T15:47:19;17.30;99.90
9497;DHT22;4786;51.270;4.456;2023-04-29T15:49:46;17.30;99.90
9497;DHT22;4786;51.270;4.456;2023-04-29T15:52:12;17.20;99.90
9497;DHT22;4786;51.270;4.456;2023-04-29T15:54:37;17.30;99.90
9497;DHT22;4786;51.270;4.456;2023-04-29T15:57:03;17.20;99.90
9497;DHT22;4786;51.270;4.456;2023-04-29T15:59:30;17.20;99.90
9497;DHT22;4786;51.270;4.456;2023-04-29T16:01:56;17.10;99.90
9497;DHT22;4786;51.270;4.456;2023-04-29T16:04:22;17.00;99.90
9497;DHT22;4786;51.270;4.456;2023-04-29T16:06:48;17.10;99.90
9497;DHT22;4786;51.270;4.456;2023-04-29T16:09:14;17.20;99.90
9497;DHT22;4786;51.270;4.456;2023-04-29T16:11:40;17.20;99.90
9497;DHT22;4786;51.270;4.456;2023-04-29T16:14:07;17.20;99.90
9497;DHT22;4786;51.270;4.456;2023-04-29T16:16:33;17.10;99.90
9497;DHT22;4786;51.270;4.456;2023-04-29T16:18:59;17.10;99.90
9497;DHT22;4786;51.270;4.456;2023-04-29T16:21:25;17.00;99.90
9497;DHT22;4786;51.270;4.456;2023-04-29T16:23:52;17.00;99.90
9497;DHT22;4786;51.270;4.456;2023-04-29T16:26:17;17.00;99.90
9497;DHT22;4786;51.270;4.456;2023-04-29T16:28:44;16.80;99.90
9497;DHT22;4786;51.270;4.456;2023-04-29T16:31:10;16.90;99.90